Time;durP1;ratioP1;P1;durP2;ratioP2;P2;SDS_P1;SDS_P2;PMS_P1;PMS_P2;Temp;Humidity;BMP_temperature;BMP_pressure;BME280_temperature;BME280_humidity;BME280_pressure;Samples;Min_cycle;Max_cycle;Signal;HPM_P1;HPM_P2
2023/07/19 06:00:58;;;;;;;17.30;7.55;;;;;;;22.18;100.00;99989.25;1415039;85;21574;-78
2023/07/19 06:03:34;;;;;;;11.95;7.87;;;;;;;22.38;100.00;99970.83;1469315;86;22573;-85
2023/07/19 06:06:05;;;;;;;11.93;7.92;;;;;;;22.56;100.00;99973.94;1460827;86;21537;-83
2023/07/19 06:08:32;;;;;;;15.88;8.18;;;;;;;22.72;100.00;99979.11;1479682;88;22323;-81
2023/07/19 06:10:59;;;;;;;16.87;8.88;;;;;;;22.83;100.00;99969.34;1475122;86;21501;-81
2023/07/19 06:13:25;;;;;;;14.03;9.45;;;;;;;22.88;100.00;99975.67;1465693;88;21473;-81
2023/07/19 06:15:51;;;;;;;9.85;8.10;;;;;;;22.90;100.00;99976.77;1474756;88;21635;-81
2023/07/19 06:18:18;;;;;;;9.53;7.10;;;;;;;23.01;100.00;99971.89;1478945;88;21524;-81
2023/07/19 06:20:44;;;;;;;10.58;7.92;;;;;;;22.96;100.00;99981.26;1454837;86;21383;-81
2023/07/19 06:23:20;;;;;;;12.50;8.10;;;;;;;23.11;100.00;99969.94;1433542;90;22469;-80
2023/07/19 06:25:47;;;;;;;13.58;8.38;;;;;;;23.16;99.31;99980.80;1444140;86;21613;-80
2023/07/19 06:28:13;;;;;;;10.13;6.92;;;;;;;23.27;99.68;99984.52;1464586;88;21434;-82
2023/07/19 06:30:41;;;;;;;9.55;8.33;;;;;;;23.38;99.66;99987.16;1467098;88;23415;-83
2023/07/19 06:33:07;;;;;;;15.08;8.13;;;;;;;23.48;99.47;99985.70;1473710;88;21480;-81
2023/07/19 06:35:41;;;;;;;17.57;8.23;;;;;;;23.55;98.79;99983.67;1462656;86;21552;-79
2023/07/19 06:38:16;;;;;;;10.68;7.72;;;;;;;23.62;98.27;99982.97;1455325;86;21568;-81
2023/07/19 06:40:42;;;;;;;14.63;7.67;;;;;;;23.61;97.52;99987.56;1461900;88;22349;-81
2023/07/19 06:43:09;;;;;;;10.98;7.42;;;;;;;23.71;98.21;99990.17;1467383;86;21457;-82
2023/07/19 06:45:35;;;;;;;12.65;7.55;;;;;;;23.86;98.25;99982.34;1457910;88;22500;-82
2023/07/19 06:48:02;;;;;;;13.08;7.28;;;;;;;23.95;97.11;99978.69;1477334;85;22069;-83
2023/07/19 06:50:28;;;;;;;12.18;7.00;;;;;;;24.08;96.27;99975.63;1455170;88;21805;-82
2023/07/19 06:52:54;;;;;;;10.43;7.45;;;;;;;24.23;97.15;99978.58;1442825;86;22646;-80
2023/07/19 06:55:21;;;;;;;15.40;7.12;;;;;;;24.34;94.66;99982.25;1465456;86;21427;-81
2023/07/19 06:57:47;;;;;;;14.95;8.30;;;;;;;24.46;95.85;99976.77;1466270;88;21569;-80
2023/07/19 07:00:14;;;;;;;17.37;6.22;;;;;;;24.60;95.64;99967.72;1442538;88;21354;-81
2023/07/19 07:02:40;;;;;;;15.28;7.12;;;;;;;24.66;93.96;99968.91;1463843;88;22171;-82
2023/07/19 07:05:10;;;;;;;9.93;7.45;;;;;;;24.82;94.75;99971.78;1466449;87;21679;-82
2023/07/19 07:07:35;;;;;;;9.38;6.83;;;;;;;24.96;94.54;99970.33;1410825;90;21545;-80
2023/07/19 07:10:04;;;;;;;18.05;7.37;;;;;;;25.11;93.86;99973.19;1468146;87;21390;-82
2023/07/19 07:12:29;;;;;;;14.43;7.00;;;;;;;25.24;92.80;99967.14;1414779;88;22513;-80
2023/07/19 07:14:55;;;;;;;10.48;6.85;;;;;;;25.29;92.35;99963.11;1468642;88;21525;-81
2023/07/19 07:17:22;;;;;;;8.65;6.45;;;;;;;25.28;91.59;99959.59;1469674;88;21536;-82
2023/07/19 07:19:48;;;;;;;9.13;5.67;;;;;;;25.30;91.57;99958.00;1466477;87;22349;-83
2023/07/19 07:22:16;;;;;;;12.07;6.85;;;;;;;25.31;91.49;99961.78;1469230;87;22178;-83
2023/07/19 07:24:42;;;;;;;10.80;7.62;;;;;;;25.36;91.14;99961.03;1459994;88;21501;-81
2023/07/19 07:27:08;;;;;;;12.35;7.00;;;;;;;25.48;90.96;99956.26;1469272;88;22262;-80
2023/07/19 07:29:35;;;;;;;8.33;6.03;;;;;;;25.57;90.83;99954.70;1473661;86;21525;-83
2023/07/19 07:32:01;;;;;;;10.38;7.35;;;;;;;25.72;90.81;99955.91;1473750;88;21559;-83
2023/07/19 07:34:28;;;;;;;12.73;6.53;;;;;;;25.88;90.48;99954.98;1477084;88;21502;-83
2023/07/19 07:36:54;;;;;;;17.32;7.17;;;;;;;25.97;89.72;99948.53;1478392;86;21465;-83
2023/07/19 07:39:20;;;;;;;9.85;6.87;;;;;;;26.07;88.99;99945.36;1464294;86;21531;-82
2023/07/19 07:42:36;;;;;;;12.53;6.87;;;;;;;26.20;89.79;99943.26;1466337;86;21457;-81
2023/07/19 07:45:05;;;;;;;10.40;6.30;;;;;;;26.33;89.49;99940.09;1472492;88;21377;-82
2023/07/19 07:47:32;;;;;;;9.15;6.53;;;;;;;26.55;88.85;99940.73;1473439;88;22413;-83
2023/07/19 07:50:00;;;;;;;8.08;5.72;;;;;;;26.66;87.70;99940.80;1505538;86;21517;-82
2023/07/19 07:52:26;;;;;;;9.45;6.67;;;;;;;26.74;87.46;99934.85;1476750;88;21545;-83
2023/07/19 07:54:52;;;;;;;8.03;5.65;;;;;;;26.74;86.58;99940.28;1476919;88;21635;-83
2023/07/19 07:57:18;;;;;;;12.10;6.85;;;;;;;26.75;85.78;99940.55;1474156;87;23455;-79
2023/07/19 07:59:50;;;;;;;11.18;6.70;;;;;;;26.73;85.79;99939.47;1480957;87;21561;-83
2023/07/19 08:02:13;;;;;;;11.28;6.10;;;;;;;26.84;86.58;99944.38;1470779;88;21562;-81
2023/07/19 08:04:40;;;;;;;11.53;6.55;;;;;;;26.89;85.45;99948.47;1468218;88;21553;-81
2023/07/19 08:07:06;;;;;;;9.88;6.40;;;;;;;26.99;85.57;99941.72;1478895;88;21449;-82
2023/07/19 08:09:35;;;;;;;14.33;5.75;;;;;;;26.94;84.97;99943.05;1458659;88;21459;-82
2023/07/19 08:12:02;;;;;;;7.70;5.20;;;;;;;26.98;84.76;99941.42;1464879;88;21473;-80
2023/07/19 08:14:28;;;;;;;7.58;5.45;;;;;;;26.97;84.64;99937.09;1460983;88;21427;-81
2023/07/19 08:16:54;;;;;;;9.18;5.75;;;;;;;27.15;84.79;99940.37;1442317;89;21555;-80
2023/07/19 08:19:20;;;;;;;8.70;5.40;;;;;;;27.34;84.45;99937.45;1445415;90;22552;-82
2023/07/19 08:21:46;;;;;;;10.30;5.70;;;;;;;27.52;83.88;99938.01;1447510;90;21459;-81
2023/07/19 08:24:13;;;;;;;9.58;4.75;;;;;;;27.64;82.95;99943.42;1421330;92;22343;-80
2023/07/19 08:26:43;;;;;;;6.78;5.28;;;;;;;27.78;81.79;99940.98;1442939;90;22434;-81
2023/07/19 08:29:07;;;;;;;8.45;5.37;;;;;;;27.87;81.50;99939.91;1399780;92;22381;-82
2023/07/19 08:31:34;;;;;;;9.08;5.35;;;;;;;27.97;81.04;99929.58;1442899;90;21459;-82
2023/07/19 08:34:00;;;;;;;16.42;5.60;;;;;;;28.06;80.86;99930.64;1413341;92;22308;-81
2023/07/19 08:36:27;;;;;;;6.12;5.08;;;;;;;28.10;80.47;99931.70;1437263;90;21532;-81
2023/07/19 08:38:53;;;;;;;7.12;5.00;;;;;;;28.07;80.35;99924.10;1447241;90;21577;-81
2023/07/19 08:41:32;;;;;;;7.17;5.62;;;;;;;28.07;80.38;99918.66;1439674;90;21488;-81
2023/07/19 08:43:59;;;;;;;8.83;5.17;;;;;;;28.12;80.18;99913.22;1444003;90;21543;-81
2023/07/19 08:46:25;;;;;;;7.62;5.58;;;;;;;28.17;80.51;99913.20;1445409;90;22405;-81
2023/07/19 08:48:51;;;;;;;6.65;5.87;;;;;;;28.24;80.90;99912.35;1418311;91;21590;-81
2023/07/19 08:51:18;;;;;;;7.03;4.92;;;;;;;28.33;81.38;99905.80;1444588;90;21429;-79
2023/07/19 08:53:45;;;;;;;5.78;4.70;;;;;;;28.44;80.92;99905.25;1439015;90;22471;-83
2023/07/19 08:56:13;;;;;;;9.23;6.10;;;;;;;28.54;80.47;99911.47;1417774;92;21458;-82
2023/07/19 08:58:40;;;;;;;8.60;5.20;;;;;;;28.58;78.25;99908.99;1447285;90;21407;-81
2023/07/19 09:01:08;;;;;;;6.10;5.15;;;;;;;28.62;79.58;99911.41;1417185;91;21485;-83
2023/07/19 09:03:35;;;;;;;10.58;5.22;;;;;;;28.71;79.45;99907.00;1442136;90;21702;-83
2023/07/19 09:06:01;;;;;;;10.00;5.70;;;;;;;28.81;79.35;99905.34;1445048;90;21532;-83
2023/07/19 09:08:37;;;;;;;8.83;5.42;;;;;;;28.86;78.96;99901.20;1415448;92;21553;-84
2023/07/19 09:11:04;;;;;;;9.70;5.47;;;;;;;28.89;78.57;99893.86;1436710;90;21637;-82
2023/07/19 09:13:36;;;;;;;8.65;5.65;;;;;;;28.93;78.04;99889.46;1453638;90;22257;-84
2023/07/19 09:16:04;;;;;;;14.68;5.00;;;;;;;29.00;77.79;99884.50;1448259;89;21480;-84
2023/07/19 09:18:36;;;;;;;7.55;5.65;;;;;;;29.01;77.73;99889.67;1416099;92;21553;-83
2023/07/19 09:21:05;;;;;;;7.90;5.62;;;;;;;29.13;78.52;99889.34;1446268;89;21420;-84
2023/07/19 09:23:36;;;;;;;8.25;5.87;;;;;;;29.18;77.63;99882.50;1438464;89;21429;-83
2023/07/19 09:26:04;;;;;;;9.48;6.47;;;;;;;29.28;78.19;99887.60;1439608;89;22216;-84
2023/07/19 09:28:36;;;;;;;7.58;5.47;;;;;;;29.35;77.95;99883.47;1446144;90;21465;-84
2023/07/19 09:31:05;;;;;;;7.47;5.03;;;;;;;29.46;77.60;99890.98;1435261;90;21451;-83
2023/07/19 09:33:31;;;;;;;8.30;5.30;;;;;;;29.55;76.97;99896.10;1439212;90;21585;-84
2023/07/19 09:35:58;;;;;;;6.22;5.35;;;;;;;29.64;76.63;99883.50;1449573;90;21495;-84
2023/07/19 09:38:26;;;;;;;7.42;5.30;;;;;;;29.64;76.07;99876.69;1447889;89;21571;-84
2023/07/19 09:40:55;;;;;;;8.80;5.35;;;;;;;29.77;76.37;99873.01;1440708;89;21547;-84
2023/07/19 09:43:22;;;;;;;7.83;5.65;;;;;;;29.67;76.25;99873.94;1411348;92;21611;-83
2023/07/19 09:45:50;;;;;;;9.20;5.30;;;;;;;29.74;76.84;99883.94;1445475;90;21473;-83
2023/07/19 09:48:21;;;;;;;9.27;5.60;;;;;;;29.90;76.67;99879.16;1450529;90;21622;-83
2023/07/19 09:50:49;;;;;;;6.78;5.40;;;;;;;30.04;76.67;99877.36;1442325;90;22278;-84
2023/07/19 09:53:16;;;;;;;6.83;5.85;;;;;;;30.18;75.94;99872.55;1446506;90;21745;-82
2023/07/19 09:55:47;;;;;;;6.05;5.42;;;;;;;30.26;75.46;99867.28;1448400;90;22338;-83
2023/07/19 09:58:15;;;;;;;6.75;5.42;;;;;;;30.38;75.18;99868.23;1433220;91;21457;-84
2023/07/19 10:00:42;;;;;;;11.15;5.47;;;;;;;30.47;74.93;99867.02;1450150;90;21420;-84
2023/07/19 10:03:09;;;;;;;10.75;4.95;;;;;;;30.55;75.07;99860.91;1441884;90;21568;-84
2023/07/19 10:05:37;;;;;;;14.05;5.25;;;;;;;30.64;74.00;99861.87;1444314;90;21569;-83
2023/07/19 10:08:06;;;;;;;10.20;5.15;;;;;;;30.62;73.33;99855.10;1414243;91;22498;-84
2023/07/19 10:10:41;;;;;;;7.55;5.28;;;;;;;30.56;73.22;99855.16;1448332;90;21539;-84
2023/07/19 10:13:09;;;;;;;7.70;5.20;;;;;;;30.55;73.92;99861.71;1444312;90;21436;-83
2023/07/19 10:15:36;;;;;;;11.08;4.87;;;;;;;30.62;74.04;99860.56;1405821;92;21495;-83
2023/07/19 10:18:04;;;;;;;10.25;6.00;;;;;;;30.65;74.50;99857.24;1447969;90;21614;-84
2023/07/19 10:20:35;;;;;;;6.83;4.97;;;;;;;30.74;74.44;99856.27;1438722;90;21517;-83
2023/07/19 10:23:08;;;;;;;6.55;5.25;;;;;;;30.91;74.03;99853.05;1411857;92;21553;-83
2023/07/19 10:25:49;;;;;;;9.78;5.87;;;;;;;31.07;73.74;99849.50;1446108;90;21717;-84
2023/07/19 10:28:29;;;;;;;8.00;5.62;;;;;;;31.07;72.91;99850.06;1447436;89;22577;-85
2023/07/19 10:30:59;;;;;;;7.12;4.83;;;;;;;31.19;72.75;99841.67;1424320;90;22498;-84
2023/07/19 10:33:29;;;;;;;6.20;5.33;;;;;;;31.38;73.07;99838.09;1443439;90;23265;-84
2023/07/19 11:26:14;;;;;;;10.10;5.97;;;;;;;32.30;61.54;99830.29;1536932;83;28387;-82
2023/07/19 11:28:49;;;;;;;6.15;4.92;;;;;;;32.38;62.86;99827.96;1520805;84;21403;-82
2023/07/19 11:31:34;;;;;;;8.63;4.75;;;;;;;32.60;63.00;99819.83;1509929;84;21587;-82
2023/07/19 11:36:46;;;;;;;6.35;5.12;;;;;;;32.55;61.76;99808.98;1515409;85;22583;-82
2023/07/19 11:39:18;;;;;;;8.80;5.42;;;;;;;32.65;61.65;99807.92;1440295;91;22867;-82
2023/07/19 11:41:48;;;;;;;15.50;5.80;;;;;;;32.57;60.88;99798.50;1457934;90;21435;-82
2023/07/19 11:44:22;;;;;;;6.97;4.70;;;;;;;32.69;61.17;99792.50;1449479;89;21393;-82
2023/07/19 11:46:48;;;;;;;8.30;5.17;;;;;;;32.87;62.00;99794.80;1446591;90;22506;-82
2023/07/19 11:49:15;;;;;;;15.25;5.58;;;;;;;33.03;61.11;99793.31;1435482;90;21400;-82
2023/07/19 11:51:42;;;;;;;5.87;4.87;;;;;;;33.03;60.25;99787.83;1446242;90;21577;-82
2023/07/19 11:54:08;;;;;;;10.58;5.62;;;;;;;32.79;59.96;99789.50;1415154;91;21520;-81
2023/07/19 11:56:35;;;;;;;10.98;5.72;;;;;;;32.12;53.75;99784.71;1431515;90;21542;-83
2023/07/19 11:59:01;;;;;;;9.78;5.85;;;;;;;32.07;56.83;99778.78;1433637;89;21441;-82
2023/07/19 12:01:28;;;;;;;7.40;4.90;;;;;;;32.29;56.72;99782.14;1444487;89;21390;-82
2023/07/19 12:03:59;;;;;;;8.15;5.53;;;;;;;32.59;55.60;99781.20;1445883;89;21531;-83
2023/07/19 12:06:22;;;;;;;11.13;5.73;;;;;;;32.54;54.91;99775.31;1436836;89;21456;-84
2023/07/19 12:08:48;;;;;;;9.00;4.78;;;;;;;32.75;55.53;99770.14;1441948;91;21553;-83
2023/07/19 12:11:15;;;;;;;7.50;5.30;;;;;;;32.97;55.40;99771.23;1419529;89;22410;-82
2023/07/19 12:13:41;;;;;;;10.08;5.40;;;;;;;33.11;54.42;99760.23;1448983;89;21450;-83
2023/07/19 12:16:07;;;;;;;8.80;5.50;;;;;;;33.23;53.46;99757.17;1452467;89;21595;-83
2023/07/19 12:18:33;;;;;;;7.78;4.78;;;;;;;33.30;52.66;99758.08;1437515;89;21437;-83
2023/07/19 12:21:00;;;;;;;7.58;5.37;;;;;;;33.26;52.29;99748.84;1455288;90;21950;-82
2023/07/19 12:23:26;;;;;;;10.15;5.50;;;;;;;33.32;52.49;99748.16;1437291;91;21525;-82
2023/07/19 12:25:52;;;;;;;15.10;5.60;;;;;;;33.22;52.45;99739.09;1432074;91;21608;-81
2023/07/19 12:28:22;;;;;;;10.25;5.50;;;;;;;33.14;53.17;99732.99;1437063;90;22653;-82
2023/07/19 12:31:29;;;;;;;7.33;6.03;;;;;;;33.25;52.01;99727.48;1430452;90;21508;-82
2023/07/19 12:34:09;;;;;;;7.10;4.78;;;;;;;33.35;51.94;99730.53;1430745;90;21501;-80
2023/07/19 12:36:39;;;;;;;7.75;5.60;;;;;;;33.48;52.38;99730.16;1437064;90;21554;-80
2023/07/19 12:39:11;;;;;;;8.75;5.40;;;;;;;33.52;51.36;99728.45;1437385;90;22394;-80
2023/07/19 12:41:37;;;;;;;8.70;5.65;;;;;;;33.51;51.31;99722.66;1430501;91;21437;-80
2023/07/19 12:44:06;;;;;;;8.78;4.90;;;;;;;33.38;51.78;99723.03;1471930;87;21463;-80
2023/07/19 12:46:34;;;;;;;13.33;5.63;;;;;;;33.32;49.31;99710.59;1471205;87;21414;-80
2023/07/19 12:49:02;;;;;;;11.22;5.40;;;;;;;33.43;49.05;99711.09;1448605;88;21618;-79
2023/07/19 12:51:31;;;;;;;7.33;4.92;;;;;;;33.48;48.56;99705.47;1466013;88;22012;-80
2023/07/19 12:53:57;;;;;;;12.78;6.20;;;;;;;33.20;48.20;99708.45;1468257;88;21388;-81
2023/07/19 12:56:38;;;;;;;9.80;5.58;;;;;;;33.23;48.79;99698.23;1470709;87;21663;-80
2023/07/19 12:59:00;;;;;;;10.45;5.55;;;;;;;33.40;49.17;99691.97;1451287;88;21537;-80
2023/07/19 13:01:28;;;;;;;11.68;5.17;;;;;;;33.55;48.86;99694.05;1456282;88;22298;-80
2023/07/19 13:03:55;;;;;;;8.48;5.20;;;;;;;33.77;48.57;99684.92;1478147;88;21374;-80
2023/07/19 13:06:21;;;;;;;8.75;5.35;;;;;;;33.96;45.74;99682.69;1477280;87;21641;-80
2023/07/19 13:08:48;;;;;;;10.13;5.33;;;;;;;33.88;43.13;99683.48;1457821;88;21463;-80
2023/07/19 13:11:16;;;;;;;11.15;5.28;;;;;;;34.01;43.71;99686.66;1464385;88;21632;-80
2023/07/19 13:13:43;;;;;;;8.90;5.63;;;;;;;34.03;43.25;99677.51;1461190;88;21500;-80
2023/07/19 13:16:10;;;;;;;6.87;5.78;;;;;;;33.98;43.15;99677.69;1466308;88;21543;-80
2023/07/19 13:18:36;;;;;;;16.17;5.67;;;;;;;34.26;43.07;99670.52;1467235;88;21428;-80
2023/07/19 13:21:03;;;;;;;16.97;5.30;;;;;;;34.50;42.85;99667.24;1449104;88;21530;-80
2023/07/19 13:23:29;;;;;;;8.53;4.78;;;;;;;34.74;42.58;99661.26;1467679;88;21661;-80
2023/07/19 13:25:56;;;;;;;22.82;5.85;;;;;;;35.04;42.26;99657.44;1475533;88;21404;-80
2023/07/19 13:28:22;;;;;;;11.33;6.08;;;;;;;35.29;41.88;99653.54;1451636;89;21563;-81
2023/07/19 13:30:49;;;;;;;9.93;5.42;;;;;;;35.27;39.64;99635.18;1477922;88;22261;-80
2023/07/19 13:33:16;;;;;;;14.63;5.05;;;;;;;35.27;39.64;99635.18;1483912;87;22100;-80
2023/07/19 13:35:42;;;;;;;6.03;4.42;;;;;;;35.53;39.66;99641.09;1478840;87;21463;-80
2023/07/19 13:38:09;;;;;;;12.28;5.47;;;;;;;35.65;39.18;99638.45;1473914;87;21678;-80
2023/07/19 13:40:35;;;;;;;12.30;5.42;;;;;;;35.65;39.18;99638.45;1444342;89;21599;-79
2023/07/19 13:43:02;;;;;;;9.88;5.55;;;;;;;35.63;39.29;99638.00;1477847;88;21441;-80
2023/07/19 13:45:28;;;;;;;11.00;4.87;;;;;;;35.86;38.85;99625.52;1445324;90;21502;-80
2023/07/19 13:47:55;;;;;;;10.95;5.25;;;;;;;36.21;38.50;99629.94;1478001;88;21578;-81
2023/07/19 13:50:21;;;;;;;10.58;5.10;;;;;;;36.43;38.31;99623.25;1471126;88;21449;-81
2023/07/19 13:52:47;;;;;;;11.90;5.95;;;;;;;36.53;36.66;99625.00;1447573;90;22469;-80
2023/07/19 13:55:13;;;;;;;7.78;4.85;;;;;;;36.45;37.14;99614.84;1467302;88;21515;-79
2023/07/19 13:57:39;;;;;;;9.70;4.83;;;;;;;36.70;36.55;99619.08;1450538;90;22063;-79
2023/07/19 14:00:08;;;;;;;11.38;5.58;;;;;;;36.84;36.78;99610.48;1475275;87;21427;-80
2023/07/19 14:02:36;;;;;;;10.60;5.40;;;;;;;36.89;36.64;99606.92;1373379;90;21431;-80
2023/07/19 14:05:03;;;;;;;19.07;6.50;;;;;;;36.55;36.45;99610.91;1397100;87;21546;-80
2023/07/19 14:07:30;;;;;;;11.43;5.35;;;;;;;36.21;36.39;99600.44;1398974;87;21317;-80
2023/07/19 14:09:56;;;;;;;20.85;6.00;;;;;;;36.09;36.27;99602.59;1427519;88;21553;-80
2023/07/19 14:12:22;;;;;;;11.85;5.15;;;;;;;36.09;36.50;99599.03;1450121;89;21467;-80
2023/07/19 14:14:48;;;;;;;5.92;4.55;;;;;;;36.09;36.16;99589.39;1469343;87;21581;-79
2023/07/19 14:17:14;;;;;;;10.95;5.45;;;;;;;35.47;36.34;99584.89;1464393;88;22232;-80
2023/07/19 14:19:40;;;;;;;9.28;5.33;;;;;;;35.47;36.34;99601.39;1451804;90;21574;-80
2023/07/19 14:22:07;;;;;;;13.18;5.58;;;;;;;35.23;36.91;99562.73;1476317;88;21412;-80
2023/07/19 14:24:33;;;;;;;7.87;5.03;;;;;;;35.25;37.09;99576.97;1447792;89;21443;-80
2023/07/19 14:26:59;;;;;;;13.88;5.25;;;;;;;35.33;36.34;99567.03;1478097;87;21648;-80
2023/07/19 14:29:25;;;;;;;10.55;5.35;;;;;;;35.65;36.92;99557.27;1443010;90;21706;-80
2023/07/19 14:31:53;;;;;;;17.82;6.20;;;;;;;35.65;36.92;99557.27;1469950;88;21500;-81
2023/07/19 14:34:19;;;;;;;22.22;6.20;;;;;;;35.93;35.67;99555.55;1453555;90;21459;-80
2023/07/19 14:36:45;;;;;;;12.95;5.62;;;;;;;36.33;35.98;99563.86;1471847;88;22035;-80
2023/07/19 14:39:12;;;;;;;10.03;5.75;;;;;;;36.57;35.59;99562.56;1457916;89;21452;-80
2023/07/19 14:41:38;;;;;;;12.98;5.12;;;;;;;36.73;34.86;99565.44;1444262;90;22123;-80
2023/07/19 14:44:05;;;;;;;9.25;5.10;;;;;;;36.91;34.62;99563.83;1437746;91;21452;-80
2023/07/19 14:46:33;;;;;;;10.23;5.15;;;;;;;37.30;34.38;99551.87;1442798;90;21531;-80
2023/07/19 14:49:00;;;;;;;40.10;6.28;;;;;;;37.60;34.01;99552.39;1438534;91;22261;-80
2023/07/19 14:51:27;;;;;;;6.45;4.67;;;;;;;37.88;32.83;99555.16;1448613;90;21532;-80
2023/07/19 14:53:53;;;;;;;13.68;5.35;;;;;;;38.14;32.39;99545.84;1437656;91;21827;-81
2023/07/19 14:56:19;;;;;;;9.20;4.85;;;;;;;38.47;31.71;99548.91;1439297;90;22308;-80
2023/07/19 14:58:45;;;;;;;8.78;4.25;;;;;;;38.60;31.12;99540.72;1435177;91;21428;-81
2023/07/19 15:01:11;;;;;;;9.78;4.37;;;;;;;38.79;30.28;99538.63;1446167;90;21421;-81
2023/07/19 15:03:37;;;;;;;12.60;4.80;;;;;;;38.81;30.06;99535.48;1435353;91;21599;-81
2023/07/19 15:06:04;;;;;;;8.95;5.03;;;;;;;38.71;29.99;99542.38;1443705;90;22358;-81
2023/07/19 15:08:30;;;;;;;7.58;3.90;;;;;;;38.48;29.96;99538.06;1420709;91;21487;-81
2023/07/19 15:10:56;;;;;;;9.48;4.35;;;;;;;38.44;30.17;99548.79;1440295;90;21517;-81
2023/07/19 15:13:22;;;;;;;12.00;4.65;;;;;;;38.43;29.75;99548.58;1440580;91;22475;-81
2023/07/19 15:15:48;;;;;;;5.72;3.55;;;;;;;38.42;30.12;99544.22;1443822;90;21715;-80
2023/07/19 15:18:16;;;;;;;8.50;4.53;;;;;;;38.41;29.55;99530.96;1435856;91;21503;-80
2023/07/19 15:20:42;;;;;;;8.60;4.28;;;;;;;38.18;30.27;99534.08;1446328;90;21435;-80
2023/07/19 15:23:10;;;;;;;7.70;4.55;;;;;;;38.25;30.46;99540.61;1437521;91;21638;-81
2023/07/19 15:25:36;;;;;;;7.80;4.22;;;;;;;38.27;29.58;99547.14;1455116;90;21472;-80
2023/07/19 15:28:03;;;;;;;14.07;4.12;;;;;;;38.38;29.41;99560.66;1437348;91;21414;-81
2023/07/19 15:30:29;;;;;;;10.50;3.95;;;;;;;38.53;29.01;99569.59;1439145;90;21427;-80
2023/07/19 15:32:56;;;;;;;6.08;3.87;;;;;;;38.67;28.50;99562.79;1437121;91;21441;-80
2023/07/19 15:35:22;;;;;;;10.13;4.00;;;;;;;38.56;28.82;99561.96;1446362;90;22382;-81
2023/07/19 15:37:48;;;;;;;9.75;3.72;;;;;;;38.46;29.12;99569.39;1436857;91;21541;-80
2023/07/19 15:40:15;;;;;;;9.15;4.10;;;;;;;38.22;29.26;99565.39;1477707;87;21523;-81
2023/07/19 15:42:47;;;;;;;12.05;4.03;;;;;;;37.89;29.53;99567.80;1479289;88;21578;-80
2023/07/19 15:45:14;;;;;;;12.50;3.77;;;;;;;37.44;29.86;99561.96;1459319;89;22501;-80
2023/07/19 15:47:46;;;;;;;8.48;4.30;;;;;;;36.88;30.69;99565.90;1467011;87;21477;-80
2023/07/19 15:50:12;;;;;;;16.17;4.25;;;;;;;36.58;31.33;99552.34;1483774;88;21581;-80
2023/07/19 15:52:40;;;;;;;13.28;4.83;;;;;;;36.16;31.91;99560.72;1480500;88;21470;-80
2023/07/19 15:55:08;;;;;;;11.93;4.50;;;;;;;35.46;32.47;99561.85;1388912;88;21419;-81
2023/07/19 15:57:34;;;;;;;10.98;4.78;;;;;;;34.86;32.75;99566.55;1408041;87;21516;-80
2023/07/19 16:00:00;;;;;;;12.05;4.58;;;;;;;34.27;33.49;99577.38;1536597;89;22170;-80
2023/07/19 16:02:26;;;;;;;12.10;4.15;;;;;;;33.76;33.97;99563.95;1449737;87;21440;-80
2023/07/19 16:04:56;;;;;;;14.07;4.65;;;;;;;33.21;34.92;99570.81;1483930;88;22126;-80
2023/07/19 16:07:24;;;;;;;7.33;4.33;;;;;;;32.87;35.62;99563.27;1475981;87;21604;-80
2023/07/19 16:09:50;;;;;;;9.48;4.50;;;;;;;32.57;36.37;99564.33;1477093;88;21507;-80
2023/07/19 16:12:16;;;;;;;6.95;4.78;;;;;;;32.27;36.80;99559.08;1471554;87;22321;-80
2023/07/19 16:14:43;;;;;;;15.80;4.72;;;;;;;32.05;37.16;99548.41;1456062;89;21458;-82
2023/07/19 16:17:09;;;;;;;8.98;4.22;;;;;;;31.82;37.76;99550.31;1483209;88;21493;-80
2023/07/19 16:19:35;;;;;;;10.82;4.35;;;;;;;31.60;38.26;99540.72;1454041;89;22259;-81
2023/07/19 16:22:01;;;;;;;8.40;4.83;;;;;;;31.35;38.28;99525.12;1477828;87;21514;-81
2023/07/19 16:24:27;;;;;;;14.93;4.22;;;;;;;31.09;38.72;99525.41;1450110;89;23013;-81
2023/07/19 16:26:53;;;;;;;7.53;4.37;;;;;;;30.90;39.20;99526.34;1462683;88;21441;-82
2023/07/19 16:29:20;;;;;;;8.23;4.17;;;;;;;30.65;40.01;99519.99;1457222;89;21436;-81
2023/07/19 16:31:46;;;;;;;11.48;4.87;;;;;;;30.50;40.21;99526.00;1483951;87;22351;-81
2023/07/19 16:36:46;;;;;;;8.05;4.95;;;;;;;30.31;40.98;99525.26;1526920;85;25888;-80
2023/07/19 16:39:12;;;;;;;13.70;4.60;;;;;;;30.18;41.24;99530.89;1458851;89;21464;-80
2023/07/19 16:41:38;;;;;;;12.78;5.10;;;;;;;30.09;41.58;99538.95;1478902;88;21519;-79
2023/07/19 16:44:07;;;;;;;12.55;4.87;;;;;;;30.01;41.58;99541.03;1449188;89;21493;-80
2023/07/19 16:46:33;;;;;;;14.05;5.05;;;;;;;29.94;41.54;99546.04;1461853;89;21739;-80
2023/07/19 16:49:00;;;;;;;13.53;5.05;;;;;;;29.85;41.53;99549.99;1461470;89;21523;-79
2023/07/19 16:51:27;;;;;;;8.73;4.45;;;;;;;29.82;41.81;99548.42;1464822;89;21603;-80
2023/07/19 16:53:54;;;;;;;10.75;5.62;;;;;;;29.79;42.18;99551.74;1466438;89;21508;-79
2023/07/19 16:56:20;;;;;;;14.28;5.17;;;;;;;29.75;42.35;99552.89;1459053;89;21500;-80
2023/07/19 16:58:47;;;;;;;6.30;4.62;;;;;;;29.74;42.57;99555.34;1436881;89;22644;-80
2023/07/19 17:01:13;;;;;;;8.40;4.55;;;;;;;29.68;43.09;99554.61;1457915;89;21419;-80
2023/07/19 17:03:43;;;;;;;7.75;5.22;;;;;;;29.63;44.08;99569.67;1439170;89;21558;-81
2023/07/19 17:06:10;;;;;;;13.62;4.58;;;;;;;29.47;45.02;99577.80;1440357;89;21463;-80
2023/07/19 17:08:36;;;;;;;8.88;4.30;;;;;;;29.21;45.76;99582.77;1437324;89;22328;-80
2023/07/19 17:11:02;;;;;;;17.67;4.30;;;;;;;28.71;49.20;99589.81;1461217;89;21618;-80
2023/07/19 17:13:29;;;;;;;13.83;4.92;;;;;;;28.25;49.40;99589.41;1465009;89;21485;-81
2023/07/19 17:15:55;;;;;;;9.70;4.33;;;;;;;27.65;52.80;99593.08;1453288;89;21606;-81
2023/07/19 17:18:24;;;;;;;8.93;4.37;;;;;;;27.37;52.19;99598.66;1460356;89;21487;-81
2023/07/19 17:20:50;;;;;;;5.77;4.20;;;;;;;26.96;54.01;99592.55;1457974;89;21566;-81
2023/07/19 17:23:16;;;;;;;7.75;4.08;;;;;;;26.64;55.65;99587.44;1459477;89;21641;-81
2023/07/19 17:25:43;;;;;;;17.75;5.53;;;;;;;26.31;57.43;99574.70;1444596;89;21545;-81
2023/07/19 17:28:09;;;;;;;9.73;4.40;;;;;;;26.08;56.62;99578.22;1467920;89;21618;-80
2023/07/19 17:30:35;;;;;;;9.28;3.92;;;;;;;25.98;57.27;99579.59;1455955;89;21672;-81
2023/07/19 17:33:02;;;;;;;8.43;3.45;;;;;;;25.82;58.73;99573.84;1444108;89;22388;-81
2023/07/19 17:35:30;;;;;;;11.85;5.25;;;;;;;25.52;61.86;99576.77;1452038;89;21621;-81
2023/07/19 17:37:56;;;;;;;11.60;4.83;;;;;;;25.40;61.74;99582.39;1433687;90;21405;-81
2023/07/19 17:40:23;;;;;;;8.25;5.00;;;;;;;25.28;61.64;99589.13;1492177;87;22322;-81
2023/07/19 17:42:49;;;;;;;9.30;4.85;;;;;;;25.16;61.08;99598.83;1480289;87;21589;-80
2023/07/19 17:45:15;;;;;;;7.65;4.80;;;;;;;25.04;61.95;99599.02;1476782;87;21545;-81
2023/07/19 17:47:42;;;;;;;6.30;4.58;;;;;;;25.00;63.33;99606.02;1483305;87;21523;-81
2023/07/19 17:50:09;;;;;;;7.25;4.28;;;;;;;24.90;62.61;99613.55;1432481;91;21649;-81
2023/07/19 17:52:37;;;;;;;9.65;4.58;;;;;;;24.79;65.17;99626.73;1487793;87;21470;-81
2023/07/19 17:55:04;;;;;;;11.50;4.28;;;;;;;24.67;64.83;99637.75;1470578;87;21663;-81
2023/07/19 17:57:31;;;;;;;7.08;3.90;;;;;;;24.60;65.36;99641.74;1483539;87;21611;-80
2023/07/19 17:59:57;;;;;;;9.95;3.83;;;;;;;24.49;68.31;99665.21;1436159;90;21420;-79
2023/07/19 18:02:23;;;;;;;11.80;3.90;;;;;;;24.35;68.99;99708.05;1488275;87;22365;-81
2023/07/19 18:04:49;;;;;;;5.72;3.77;;;;;;;23.94;72.85;99714.89;1483645;87;21664;-81
2023/07/19 18:07:16;;;;;;;10.55;4.20;;;;;;;23.78;74.00;99695.81;1430028;91;21545;-81
2023/07/19 18:09:42;;;;;;;12.07;4.35;;;;;;;23.37;79.40;99708.77;1484530;87;22410;-81
2023/07/19 18:12:11;;;;;;;5.15;3.70;;;;;;;23.17;82.39;99738.19;1486178;87;22550;-80
2023/07/19 18:14:38;;;;;;;9.27;4.17;;;;;;;23.01;83.69;99755.19;1428856;91;21701;-80
2023/07/19 18:17:05;;;;;;;7.25;3.80;;;;;;;23.00;81.62;99734.68;1476124;87;22293;-81
2023/07/19 18:19:32;;;;;;;15.05;3.92;;;;;;;22.90;82.06;99723.98;1480537;88;21606;-80
2023/07/19 18:21:58;;;;;;;10.58;3.72;;;;;;;22.77;82.12;99724.30;1464347;88;21398;-81
2023/07/19 18:24:24;;;;;;;4.87;3.85;;;;;;;22.71;81.29;99718.00;1475583;88;22441;-81
2023/07/19 18:26:51;;;;;;;9.48;3.30;;;;;;;22.69;79.08;99704.47;1485589;88;22359;-81